Time;durP1;ratioP1;P1;durP2;ratioP2;P2;SDS_P1;SDS_P2;PMS_P1;PMS_P2;Temp;Humidity;BMP_temperature;BMP_pressure;BME280_temperature;BME280_humidity;BME280_pressure;Samples;Min_cycle;Max_cycle;Signal;HPM_P1;HPM_P2
2023/05/13 00:00:52;;;;;;;14.63;6.15;;;;;;;16.33;77.74;98445.97;5093957;28;20099;-47
2023/05/13 00:03:17;;;;;;;23.85;6.57;;;;;;;16.39;77.61;98446.84;5093976;28;20028;-47
2023/05/13 00:05:44;;;;;;;12.13;4.88;;;;;;;16.51;78.09;98450.19;5093930;28;20024;-47
2023/05/13 00:08:10;;;;;;;9.63;4.65;;;;;;;16.60;77.12;98445.28;5093854;28;20048;-47
2023/05/13 00:10:36;;;;;;;20.48;5.50;;;;;;;16.77;77.70;98455.81;5092783;28;20020;-47
2023/05/13 00:13:02;;;;;;;21.85;6.07;;;;;;;16.96;77.10;98451.03;5093758;28;20023;-47
2023/05/13 00:15:28;;;;;;;8.23;5.30;;;;;;;16.97;74.79;98455.28;5093707;28;20154;-47
2023/05/13 00:17:54;;;;;;;8.90;4.22;;;;;;;16.75;76.25;98458.72;5092445;28;20028;-47
2023/05/13 00:20:19;;;;;;;18.10;5.93;;;;;;;16.68;75.45;98457.28;5093629;28;20020;-47
2023/05/13 00:22:45;;;;;;;13.90;5.25;;;;;;;16.42;75.25;98454.31;5093582;28;20166;-48
2023/05/13 00:25:11;;;;;;;11.50;4.90;;;;;;;16.29;76.65;98452.00;5093463;28;20012;-47
2023/05/13 00:27:38;;;;;;;8.32;5.00;;;;;;;16.35;76.39;98457.13;5093533;28;20035;-47
2023/05/13 00:30:04;;;;;;;11.43;5.63;;;;;;;16.21;76.95;98455.06;5093424;28;20031;-47
2023/05/13 00:32:30;;;;;;;10.00;5.40;;;;;;;16.31;75.34;98455.19;5092066;28;20231;-47
2023/05/13 00:34:56;;;;;;;7.30;5.20;;;;;;;16.20;76.45;98464.03;5093590;28;20440;-47
2023/05/13 00:37:22;;;;;;;13.27;5.82;;;;;;;16.14;76.83;98455.22;5091980;28;20016;-48
2023/05/13 00:39:47;;;;;;;11.75;5.38;;;;;;;16.36;76.42;98455.28;5091647;28;20040;-47
2023/05/13 00:42:14;;;;;;;10.20;5.53;;;;;;;16.44;76.34;98456.69;5093227;28;20556;-47
2023/05/13 00:44:39;;;;;;;12.88;5.47;;;;;;;16.38;75.64;98461.16;5075107;28;20109;-47
2023/05/13 00:47:05;;;;;;;8.55;5.28;;;;;;;16.40;76.41;98463.53;5091756;28;20482;-47
2023/05/13 00:49:33;;;;;;;9.65;5.85;;;;;;;16.55;76.11;98463.75;5091772;28;20077;-47
2023/05/13 00:51:59;;;;;;;18.70;6.68;;;;;;;16.56;75.20;98455.56;5093009;28;20374;-47
2023/05/13 00:54:25;;;;;;;8.43;5.75;;;;;;;16.63;73.98;98460.69;5091682;28;20031;-47
2023/05/13 00:56:55;;;;;;;12.25;6.00;;;;;;;16.68;74.38;98463.41;5074840;28;20024;-47
2023/05/13 00:59:29;;;;;;;17.13;6.38;;;;;;;16.93;73.73;98460.28;5092910;28;20030;-47
2023/05/13 01:02:04;;;;;;;14.45;6.00;;;;;;;16.88;71.95;98468.19;5091659;28;20407;-47
2023/05/13 01:04:49;;;;;;;10.45;6.07;;;;;;;16.35;71.94;98464.25;5092849;28;20440;-47
2023/05/13 01:07:27;;;;;;;12.20;6.03;;;;;;;16.01;72.73;98466.13;5092854;28;20028;-47
2023/05/13 01:10:26;;;;;;;11.80;6.20;;;;;;;15.74;74.43;98464.13;5092774;28;20238;-47
2023/05/13 01:13:00;;;;;;;7.50;5.85;;;;;;;15.65;73.67;98463.66;5091375;28;20028;-47
2023/05/13 01:15:27;;;;;;;10.68;6.53;;;;;;;15.44;74.63;98469.66;5092650;28;20074;-47
2023/05/13 01:18:06;;;;;;;6.85;6.15;;;;;;;15.29;75.04;98467.53;5091226;28;20034;-47
2023/05/13 01:20:33;;;;;;;11.02;6.25;;;;;;;15.27;76.09;98466.94;5091026;28;20084;-49
2023/05/13 01:22:58;;;;;;;7.78;5.82;;;;;;;15.47;75.79;98469.16;5091189;28;20097;-49
2023/05/13 01:25:27;;;;;;;17.10;6.88;;;;;;;15.45;75.76;98469.41;5092425;28;20481;-49
2023/05/13 01:27:53;;;;;;;9.43;5.72;;;;;;;15.60;75.74;98458.31;5092398;28;20020;-49
2023/05/13 01:30:20;;;;;;;14.32;6.80;;;;;;;15.72;75.43;98463.53;5092607;28;20382;-49
2023/05/13 01:32:46;;;;;;;19.90;7.32;;;;;;;15.86;75.24;98462.22;5091068;28;20032;-49
2023/05/13 01:35:14;;;;;;;12.38;6.53;;;;;;;16.00;74.77;98462.69;5092195;28;20024;-49
2023/05/13 01:37:41;;;;;;;12.73;5.57;;;;;;;16.17;74.32;98463.47;5092281;28;20127;-49
2023/05/13 01:40:08;;;;;;;16.50;6.90;;;;;;;16.35;73.84;98458.97;5091904;28;20048;-49
2023/05/13 01:42:34;;;;;;;15.38;5.90;;;;;;;16.46;73.00;98460.72;5090853;28;20097;-48
2023/05/13 01:44:59;;;;;;;11.52;5.68;;;;;;;16.52;72.34;98464.22;5074006;28;20024;-49
2023/05/13 01:47:26;;;;;;;18.10;5.97;;;;;;;16.56;72.13;98462.72;5092087;28;20020;-49
2023/05/13 01:49:51;;;;;;;10.02;6.75;;;;;;;16.50;71.20;98464.50;5090736;28;20020;-49
2023/05/13 01:52:17;;;;;;;16.35;6.15;;;;;;;16.42;71.78;98464.09;5092056;28;20035;-49
2023/05/13 01:54:43;;;;;;;19.98;8.00;;;;;;;16.46;71.95;98460.72;5090726;28;20024;-49
2023/05/13 01:57:09;;;;;;;16.52;8.70;;;;;;;16.45;71.65;98469.69;5090658;28;20501;-49
2023/05/13 01:59:34;;;;;;;16.23;7.78;;;;;;;16.35;71.56;98477.50;5091021;28;20016;-49
2023/05/13 02:02:02;;;;;;;14.80;6.88;;;;;;;16.40;71.64;98471.47;5090517;28;20119;-49
2023/05/13 02:04:31;;;;;;;8.00;5.28;;;;;;;16.31;70.90;98482.47;5090631;28;20028;-49
2023/05/13 02:06:57;;;;;;;12.98;5.97;;;;;;;16.31;71.33;98484.34;5091889;28;20017;-49
2023/05/13 02:09:23;;;;;;;10.52;5.57;;;;;;;16.38;71.05;98479.69;5091840;28;20081;-49
2023/05/13 02:11:48;;;;;;;11.63;6.38;;;;;;;16.29;70.57;98491.72;5090507;28;20044;-49
2023/05/13 02:14:14;;;;;;;17.17;6.70;;;;;;;16.21;71.26;98487.63;5091906;28;20020;-49
2023/05/13 02:16:40;;;;;;;8.68;5.45;;;;;;;16.28;71.17;98485.63;5092020;28;20050;-49
2023/05/13 02:19:06;;;;;;;7.88;5.85;;;;;;;16.27;70.58;98484.00;5091816;28;20097;-49
2023/05/13 02:21:32;;;;;;;8.13;6.00;;;;;;;16.21;70.86;98479.69;5091713;28;20390;-49
2023/05/13 02:23:57;;;;;;;10.25;6.50;;;;;;;16.31;70.64;98479.84;5091738;28;20028;-49
2023/05/13 02:26:23;;;;;;;20.48;18.20;;;;;;;16.41;70.54;98478.38;5090459;28;20389;-49
2023/05/13 02:28:49;;;;;;;13.57;8.38;;;;;;;16.52;70.19;98480.94;5091768;28;20016;-49
2023/05/13 02:31:15;;;;;;;23.58;20.60;;;;;;;16.58;69.62;98479.16;5091686;28;20109;-49
2023/05/13 02:33:40;;;;;;;16.08;9.23;;;;;;;16.66;69.34;98481.41;5094098;28;20512;-49
2023/05/13 02:36:06;;;;;;;13.07;9.00;;;;;;;16.72;68.76;98477.75;5095628;28;20020;-49
2023/05/13 02:38:32;;;;;;;8.73;5.85;;;;;;;16.77;68.50;98482.31;5094347;28;20031;-49
2023/05/13 02:40:59;;;;;;;12.80;6.18;;;;;;;16.77;68.23;98483.13;5095326;28;20538;-49
2023/05/13 02:43:26;;;;;;;11.75;6.03;;;;;;;16.75;68.05;98487.06;5095498;28;20072;-49
2023/05/13 02:45:52;;;;;;;9.93;6.07;;;;;;;16.77;67.97;98487.63;5095704;28;20462;-49
2023/05/13 02:48:18;;;;;;;14.48;6.18;;;;;;;16.78;67.70;98489.22;5094105;28;20115;-49
2023/05/13 02:50:43;;;;;;;13.13;6.50;;;;;;;16.72;67.89;98492.84;5095452;28;20031;-49
2023/05/13 02:53:09;;;;;;;15.25;6.93;;;;;;;16.71;67.98;98496.56;5095361;28;20027;-49
2023/05/13 02:55:35;;;;;;;12.27;6.28;;;;;;;16.72;67.76;98490.19;5095314;28;20504;-49
2023/05/13 02:58:01;;;;;;;11.40;6.40;;;;;;;16.73;67.76;98494.47;5095239;28;20024;-49
2023/05/13 03:00:26;;;;;;;8.98;6.22;;;;;;;16.71;67.55;98492.03;5076927;28;20030;-48
2023/05/13 03:02:52;;;;;;;13.65;6.00;;;;;;;16.66;67.50;98501.78;5095209;28;20371;-48
2023/05/13 03:05:18;;;;;;;7.05;6.13;;;;;;;16.62;67.74;98492.72;5095063;28;20550;-49
2023/05/13 03:07:43;;;;;;;9.52;5.75;;;;;;;16.66;67.67;98504.41;5095082;28;20021;-49
2023/05/13 03:10:12;;;;;;;8.57;6.13;;;;;;;16.65;67.67;98500.97;5095062;28;20023;-49
2023/05/13 03:12:38;;;;;;;8.55;5.63;;;;;;;16.67;67.73;98498.88;5093752;28;20054;-49
2023/05/13 03:15:04;;;;;;;7.70;5.40;;;;;;;16.74;67.39;98506.66;5094897;28;20461;-49
2023/05/13 03:17:30;;;;;;;7.72;5.38;;;;;;;16.77;67.46;98503.53;5094904;28;20100;-49
2023/05/13 03:19:56;;;;;;;15.00;5.47;;;;;;;16.81;67.22;98507.31;5095033;28;20432;-49
2023/05/13 03:22:22;;;;;;;9.93;5.47;;;;;;;16.77;67.18;98509.63;5094725;28;20070;-49
2023/05/13 03:24:47;;;;;;;11.63;6.03;;;;;;;16.75;67.14;98509.06;5094742;28;20039;-49
2023/05/13 03:27:13;;;;;;;8.07;5.53;;;;;;;16.81;67.16;98511.78;5093528;28;20059;-49
2023/05/13 03:29:39;;;;;;;9.73;5.63;;;;;;;16.71;66.81;98509.81;5093356;28;20032;-49
2023/05/13 03:32:05;;;;;;;10.98;5.63;;;;;;;16.55;67.43;98514.09;5094604;28;20100;-49
2023/05/13 03:34:32;;;;;;;8.88;5.90;;;;;;;16.58;67.68;98509.09;5094656;28;20494;-49
2023/05/13 03:36:57;;;;;;;12.23;6.30;;;;;;;16.60;67.20;98511.53;5093163;28;20528;-48
2023/05/13 03:39:25;;;;;;;14.38;6.55;;;;;;;16.62;66.94;98503.31;5092895;28;20058;-49
2023/05/13 03:41:51;;;;;;;15.23;6.80;;;;;;;16.63;66.92;98504.94;5094343;28;20024;-48
2023/05/13 03:44:17;;;;;;;15.18;6.20;;;;;;;16.60;66.68;98508.03;5092974;28;20031;-49
2023/05/13 03:46:42;;;;;;;6.93;5.55;;;;;;;16.59;67.03;98501.94;5092963;28;20120;-49
2023/05/13 03:49:08;;;;;;;9.25;5.32;;;;;;;16.57;66.92;98514.63;5092953;28;20020;-48
2023/05/13 03:51:34;;;;;;;6.72;5.65;;;;;;;16.60;66.91;98510.69;5092952;28;20039;-48
2023/05/13 03:54:01;;;;;;;10.98;6.10;;;;;;;16.61;66.68;98512.31;5076051;28;20541;-49
2023/05/13 03:56:27;;;;;;;9.38;5.97;;;;;;;16.58;66.89;98511.75;5094386;28;20386;-49
2023/05/13 03:58:53;;;;;;;6.70;5.97;;;;;;;16.60;66.73;98508.03;5094141;28;20098;-48
2023/05/13 04:01:19;;;;;;;10.65;5.70;;;;;;;16.59;66.83;98515.19;5094468;28;20036;-49
2023/05/13 04:03:45;;;;;;;11.82;5.93;;;;;;;16.65;66.51;98505.47;5092723;28;20036;-49
2023/05/13 04:06:13;;;;;;;8.57;5.93;;;;;;;16.62;66.44;98503.31;5093875;28;20060;-49
2023/05/13 04:08:39;;;;;;;9.02;5.72;;;;;;;16.59;66.75;98501.94;5093837;28;20024;-49
2023/05/13 04:11:05;;;;;;;14.20;5.40;;;;;;;16.60;66.83;98500.91;5092510;28;20032;-49
2023/05/13 04:13:34;;;;;;;7.55;5.25;;;;;;;16.62;66.69;98504.13;5093822;28;20409;-49
2023/05/13 04:16:01;;;;;;;13.48;5.53;;;;;;;16.64;66.46;98515.28;5092411;28;20024;-49
2023/05/13 04:18:29;;;;;;;5.95;5.32;;;;;;;16.63;66.53;98513.66;5093708;28;20024;-49
2023/05/13 04:20:55;;;;;;;12.85;5.85;;;;;;;16.63;66.51;98512.88;5093525;28;20069;-49
2023/05/13 04:23:20;;;;;;;14.95;5.40;;;;;;;16.69;66.58;98510.03;5092308;28;20393;-49
2023/05/13 04:25:51;;;;;;;10.68;5.78;;;;;;;16.74;65.98;98520.72;5093800;28;20035;-49
2023/05/13 04:28:17;;;;;;;10.20;5.72;;;;;;;16.75;65.70;98521.50;5093562;28;20456;-48
2023/05/13 04:30:43;;;;;;;14.85;5.65;;;;;;;16.73;65.76;98519.09;5092117;28;20036;-49
2023/05/13 04:33:09;;;;;;;12.52;6.00;;;;;;;16.71;65.67;98520.41;5093409;28;20020;-49
2023/05/13 04:35:34;;;;;;;10.07;5.88;;;;;;;16.69;65.71;98538.41;5093432;28;20056;-49
2023/05/13 04:38:00;;;;;;;7.30;5.20;;;;;;;16.66;65.93;98521.16;5093332;28;20111;-49
2023/05/13 04:40:25;;;;;;;10.80;5.97;;;;;;;16.66;65.79;98533.56;5092934;28;20047;-49
2023/05/13 04:42:53;;;;;;;14.00;5.70;;;;;;;16.67;65.88;98530.69;5091926;28;20110;-49
2023/05/13 04:45:20;;;;;;;17.70;6.18;;;;;;;16.66;65.78;98534.38;5091937;28;20052;-48
2023/05/13 04:47:46;;;;;;;11.40;6.03;;;;;;;16.68;65.92;98536.78;5091830;28;20028;-48
2023/05/13 04:50:12;;;;;;;9.40;6.55;;;;;;;16.70;65.88;98548.75;5091774;28;20579;-49
2023/05/13 04:52:38;;;;;;;10.40;5.55;;;;;;;16.67;65.43;98543.13;5093062;28;20028;-49
2023/05/13 04:55:04;;;;;;;12.05;5.78;;;;;;;16.69;65.67;98546.34;5092907;28;20081;-48
2023/05/13 04:57:30;;;;;;;14.32;5.25;;;;;;;16.73;65.91;98553.56;5091491;28;20034;-49
2023/05/13 04:59:55;;;;;;;6.60;5.40;;;;;;;16.77;65.71;98548.56;5091575;28;20114;-49
2023/05/13 05:02:21;;;;;;;9.40;5.70;;;;;;;16.80;65.50;98549.94;5091553;28;20115;-49
2023/05/13 05:04:48;;;;;;;9.05;5.22;;;;;;;16.78;65.58;98555.47;5092902;28;20020;-48
2023/05/13 05:07:13;;;;;;;10.55;5.82;;;;;;;16.79;65.46;98557.09;5092857;28;20034;-48
2023/05/13 05:09:39;;;;;;;10.65;6.07;;;;;;;16.79;65.33;98559.72;5091391;28;20050;-49
2023/05/13 05:12:05;;;;;;;10.50;5.57;;;;;;;16.79;65.42;98559.72;5092688;28;20024;-49
2023/05/13 05:14:31;;;;;;;13.45;6.35;;;;;;;16.68;65.68;98564.09;5091391;28;20478;-49
2023/05/13 05:16:57;;;;;;;20.00;6.60;;;;;;;16.70;66.17;98559.34;5091248;28;20072;-49
2023/05/13 05:19:22;;;;;;;17.10;7.25;;;;;;;16.59;67.68;98554.94;5092599;28;20016;-49
2023/05/13 05:21:50;;;;;;;8.40;7.60;;;;;;;16.20;71.07;98560.19;5091098;28;20032;-49
2023/05/13 05:24:16;;;;;;;16.88;8.07;;;;;;;15.90;74.24;98573.69;5091201;28;20506;-49
2023/05/13 05:26:41;;;;;;;15.10;10.18;;;;;;;15.56;76.83;98563.78;5092410;28;20112;-49
2023/05/13 05:29:07;;;;;;;15.68;9.10;;;;;;;15.44;79.19;98570.94;5092433;28;20024;-49
2023/05/13 05:31:33;;;;;;;14.00;6.85;;;;;;;15.57;81.81;98567.22;5091109;28;20401;-49
2023/05/13 05:34:00;;;;;;;15.32;8.18;;;;;;;15.77;82.34;98569.47;5092338;28;20024;-49
2023/05/13 05:36:27;;;;;;;11.80;8.23;;;;;;;15.53;80.36;98579.31;5092573;28;20405;-49
2023/05/13 05:38:53;;;;;;;18.83;8.82;;;;;;;15.27;82.21;98578.00;5092260;28;20027;-49
2023/05/13 05:41:18;;;;;;;10.10;7.30;;;;;;;15.26;81.87;98577.19;5090605;28;20040;-49
2023/05/13 05:43:44;;;;;;;12.70;8.18;;;;;;;15.07;81.62;98581.03;5090862;28;20032;-49
2023/05/13 05:46:10;;;;;;;13.48;7.85;;;;;;;14.91;81.88;98588.63;5092107;28;20061;-50
2023/05/13 05:48:35;;;;;;;9.32;7.43;;;;;;;14.77;82.88;98589.91;5090857;28;20152;-49
2023/05/13 05:51:01;;;;;;;14.57;7.90;;;;;;;14.87;83.50;98582.19;5092079;28;20026;-49
2023/05/13 05:53:27;;;;;;;19.65;7.68;;;;;;;15.13;83.62;98580.91;5090761;28;20028;-49
2023/05/13 05:55:52;;;;;;;12.57;7.47;;;;;;;15.09;82.26;98578.94;5092019;28;20528;-49
2023/05/13 05:58:18;;;;;;;14.52;9.05;;;;;;;15.10;82.69;98586.66;5090702;28;20047;-49
2023/05/13 06:00:44;;;;;;;22.45;7.90;;;;;;;15.25;83.87;98582.72;5090507;28;20128;-49
2023/05/13 06:03:10;;;;;;;17.92;7.18;;;;;;;15.49;83.93;98583.47;5090630;28;20085;-49
2023/05/13 06:05:36;;;;;;;16.83;7.90;;;;;;;15.74;83.03;98586.63;5091917;28;20032;-49
2023/05/13 06:08:01;;;;;;;13.95;7.20;;;;;;;15.92;82.56;98588.28;5089695;28;20024;-49
2023/05/13 06:10:27;;;;;;;11.07;7.80;;;;;;;15.87;80.50;98587.38;5090530;28;20031;-49
2023/05/13 06:12:53;;;;;;;15.65;7.55;;;;;;;15.62;81.38;98588.50;5090514;28;20039;-49
2023/05/13 06:15:19;;;;;;;9.02;7.80;;;;;;;15.78;82.56;98590.41;5091803;28;20028;-49
2023/05/13 06:17:44;;;;;;;9.52;7.35;;;;;;;15.94;81.71;98596.00;5092083;28;20036;-49
2023/05/13 06:20:11;;;;;;;15.20;8.05;;;;;;;15.84;80.49;98596.59;5091658;28;20397;-49
2023/05/13 06:22:36;;;;;;;17.83;7.70;;;;;;;15.82;79.12;98592.59;5090427;28;20024;-49
2023/05/13 06:25:02;;;;;;;16.08;7.82;;;;;;;15.83;80.25;98604.78;5091736;28;20436;-49
2023/05/13 06:27:28;;;;;;;14.38;8.75;;;;;;;15.61;78.62;98610.69;5090348;28;20051;-49
2023/05/13 06:29:53;;;;;;;9.85;7.10;;;;;;;15.55;79.96;98603.69;5091687;28;20091;-48
2023/05/13 06:32:19;;;;;;;13.35;7.65;;;;;;;15.74;79.30;98610.44;5090361;28;20027;-49
2023/05/13 06:34:45;;;;;;;9.10;7.28;;;;;;;15.94;79.16;98606.59;5090330;28;20489;-48
2023/05/13 06:37:12;;;;;;;12.43;6.93;;;;;;;16.16;78.56;98612.00;5091693;28;20035;-48
2023/05/13 06:39:38;;;;;;;12.73;7.32;;;;;;;16.36;77.59;98619.50;5091312;28;20668;-49
2023/05/13 06:42:04;;;;;;;16.85;7.72;;;;;;;16.50;76.78;98612.84;5090230;28;20093;-48
2023/05/13 06:44:30;;;;;;;14.82;7.35;;;;;;;16.64;76.03;98612.50;5090244;28;20023;-48
2023/05/13 06:46:56;;;;;;;13.48;6.78;;;;;;;16.66;73.93;98621.00;5091561;28;20104;-49
2023/05/13 06:49:23;;;;;;;16.27;7.60;;;;;;;16.68;73.70;98622.41;5090201;28;20517;-48
2023/05/13 06:51:50;;;;;;;11.57;7.22;;;;;;;16.74;73.55;98620.59;5091682;28;20097;-48
2023/05/13 06:54:15;;;;;;;15.05;7.97;;;;;;;16.79;72.58;98618.03;5091473;28;20095;-48
2023/05/13 06:56:41;;;;;;;13.40;6.78;;;;;;;16.83;71.76;98621.03;5091407;28;20173;-48
2023/05/13 06:59:07;;;;;;;12.02;7.43;;;;;;;16.87;71.18;98616.88;5091458;28;20027;-49
2023/05/13 07:01:32;;;;;;;12.23;6.70;;;;;;;16.93;70.67;98610.59;5091300;28;20043;-49
2023/05/13 07:03:58;;;;;;;10.82;6.82;;;;;;;16.99;69.54;98617.56;5091347;28;20099;-48
2023/05/13 07:06:24;;;;;;;23.10;8.07;;;;;;;17.01;69.46;98626.09;5090068;28;20032;-48
2023/05/13 07:08:49;;;;;;;12.13;6.85;;;;;;;17.07;69.04;98619.81;5090015;28;20020;-48
2023/05/13 07:11:15;;;;;;;17.38;7.53;;;;;;;17.10;68.49;98623.81;5091287;28;20027;-48
2023/05/13 07:13:41;;;;;;;21.10;8.30;;;;;;;17.12;68.43;98619.06;5091212;28;20028;-49
2023/05/13 07:16:07;;;;;;;13.00;7.03;;;;;;;17.12;68.11;98625.19;5090003;28;20020;-48
2023/05/13 07:18:32;;;;;;;10.15;7.03;;;;;;;17.12;67.85;98629.66;5091754;28;20095;-48
2023/05/13 07:20:58;;;;;;;9.57;6.95;;;;;;;17.07;67.53;98625.09;5093490;28;20072;-49
2023/05/13 07:23:24;;;;;;;14.00;6.18;;;;;;;17.08;67.42;98629.38;5094925;28;20016;-48
2023/05/13 07:25:51;;;;;;;10.15;6.13;;;;;;;17.11;67.29;98628.88;5094736;28;20020;-48
2023/05/13 07:28:20;;;;;;;12.00;7.03;;;;;;;17.12;66.87;98633.16;5093534;28;20046;-48
2023/05/13 07:30:46;;;;;;;9.52;6.65;;;;;;;17.18;66.99;98641.94;5093308;28;20020;-49
2023/05/13 07:33:12;;;;;;;16.70;7.13;;;;;;;17.09;66.45;98638.91;5093333;28;20046;-48
2023/05/13 07:35:38;;;;;;;12.30;6.90;;;;;;;17.08;66.45;98639.16;5093241;28;20024;-49
2023/05/13 07:38:03;;;;;;;12.00;6.55;;;;;;;17.13;66.27;98637.38;5094530;28;20032;-49
2023/05/13 07:40:29;;;;;;;12.05;6.75;;;;;;;17.18;65.68;98641.94;5094215;28;20044;-49
2023/05/13 07:42:55;;;;;;;15.00;6.00;;;;;;;17.10;65.73;98639.72;5093119;28;20028;-49
2023/05/13 07:45:21;;;;;;;7.90;6.25;;;;;;;17.10;65.53;98640.53;5094444;28;20477;-49
2023/05/13 07:47:46;;;;;;;11.50;6.38;;;;;;;17.12;65.46;98638.44;5093053;28;20489;-49
2023/05/13 07:50:12;;;;;;;7.78;6.22;;;;;;;17.18;64.78;98636.66;5092963;28;20486;-49
2023/05/13 07:52:38;;;;;;;17.25;7.00;;;;;;;17.24;64.84;98640.19;5094228;28;20045;-49
2023/05/13 07:55:04;;;;;;;18.98;7.70;;;;;;;17.17;64.07;98635.84;5092906;28;20148;-49
2023/05/13 07:57:30;;;;;;;15.75;6.60;;;;;;;17.02;64.67;98642.78;5094083;28;20148;-49
2023/05/13 07:59:56;;;;;;;24.70;7.18;;;;;;;16.90;64.71;98643.69;5094346;28;20085;-49
2023/05/13 08:02:21;;;;;;;7.78;6.82;;;;;;;16.92;64.77;98638.97;5094006;28;20039;-49
2023/05/13 08:04:47;;;;;;;18.60;6.45;;;;;;;16.93;64.80;98647.69;5092698;28;20028;-49
2023/05/13 08:07:13;;;;;;;9.55;5.82;;;;;;;16.94;64.57;98639.50;5092625;28;20028;-49
2023/05/13 08:09:38;;;;;;;14.18;6.47;;;;;;;16.88;64.48;98644.97;5092586;28;20050;-49
2023/05/13 08:12:05;;;;;;;9.43;5.93;;;;;;;16.95;65.26;98645.63;5093870;28;20062;-49
2023/05/13 08:14:30;;;;;;;12.90;6.07;;;;;;;17.25;64.47;98647.09;5092512;28;20031;-49
2023/05/13 08:16:56;;;;;;;10.00;5.78;;;;;;;17.34;63.50;98653.56;5093778;28;20020;-49
2023/05/13 08:19:22;;;;;;;14.10;7.15;;;;;;;17.21;63.66;98652.09;5093728;28;20027;-49
2023/05/13 08:21:47;;;;;;;9.20;6.13;;;;;;;17.31;63.73;98654.88;5093649;28;20063;-49
2023/05/13 08:24:13;;;;;;;10.45;5.93;;;;;;;17.29;63.05;98662.28;5093664;28;20024;-49
2023/05/13 08:26:39;;;;;;;7.38;5.72;;;;;;;17.15;63.63;98661.00;5092310;28;20110;-49
2023/05/13 08:29:04;;;;;;;11.70;5.97;;;;;;;17.14;64.20;98664.69;5093584;28;20028;-49
2023/05/13 08:31:31;;;;;;;11.30;6.28;;;;;;;17.15;64.41;98655.72;5091347;28;20513;-49
2023/05/13 08:33:56;;;;;;;18.00;6.80;;;;;;;17.31;64.08;98668.13;5092557;28;20039;-48
2023/05/13 08:36:24;;;;;;;19.02;7.00;;;;;;;17.51;63.39;98661.50;5093427;28;20394;-49
2023/05/13 08:38:50;;;;;;;16.73;6.72;;;;;;;17.56;63.15;98658.91;5093568;28;20028;-49
2023/05/13 08:41:17;;;;;;;14.55;5.80;;;;;;;17.76;62.98;98656.47;5093042;28;20506;-46
2023/05/13 08:43:43;;;;;;;10.90;5.25;;;;;;;17.95;62.12;98664.19;5093260;28;20016;-46
2023/05/13 08:46:10;;;;;;;11.65;5.80;;;;;;;17.99;61.59;98661.81;5093204;28;20031;-46
2023/05/13 08:48:38;;;;;;;17.80;6.22;;;;;;;17.95;61.09;98664.19;5093158;28;20456;-46
2023/05/13 08:51:04;;;;;;;25.60;7.50;;;;;;;17.87;61.59;98656.66;5058404;28;20028;-46
2023/05/13 08:53:33;;;;;;;20.83;6.95;;;;;;;18.00;61.23;98664.22;5093094;28;20486;-46
2023/05/13 08:55:59;;;;;;;19.20;14.18;;;;;;;18.12;61.22;98664.88;5093061;28;20024;-46
2023/05/13 08:58:25;;;;;;;22.20;9.90;;;;;;;18.25;60.79;98666.34;5093016;28;20390;-47
2023/05/13 09:00:54;;;;;;;8.43;5.72;;;;;;;18.25;60.00;98665.53;5093069;28;20020;-46
2023/05/13 09:03:20;;;;;;;10.65;5.97;;;;;;;18.25;60.51;98671.66;5092828;28;20064;-46
2023/05/13 09:05:46;;;;;;;15.35;5.85;;;;;;;18.40;60.25;98665.69;5091539;28;20028;-46
2023/05/13 09:08:12;;;;;;;6.55;5.63;;;;;;;18.44;59.13;98669.44;5091464;28;20020;-46
2023/05/13 09:10:38;;;;;;;11.25;5.75;;;;;;;18.45;59.38;98673.72;5092692;28;20032;-46
2023/05/13 09:13:04;;;;;;;16.77;6.53;;;;;;;18.65;59.09;98665.13;5091428;28;20074;-47
2023/05/13 09:15:30;;;;;;;17.55;5.57;;;;;;;18.84;58.71;98673.53;5091331;28;20490;-46
2023/05/13 09:18:03;;;;;;;10.20;5.22;;;;;;;19.02;57.80;98664.34;5092647;28;20428;-46
2023/05/13 09:20:29;;;;;;;13.27;5.32;;;;;;;19.12;57.25;98668.94;5092447;28;20028;-46
2023/05/13 09:23:08;;;;;;;10.18;5.25;;;;;;;19.18;56.95;98664.47;5091220;28;20024;-46
2023/05/13 09:25:36;;;;;;;13.07;5.70;;;;;;;19.30;56.85;98665.84;5092522;28;20036;-46
2023/05/13 09:28:05;;;;;;;21.63;11.73;;;;;;;19.35;56.44;98676.50;5074438;28;20145;-46
2023/05/13 09:30:38;;;;;;;11.23;6.38;;;;;;;19.43;56.15;98677.09;5091035;28;20031;-46
2023/05/13 09:33:12;;;;;;;5.50;5.00;;;;;;;19.39;54.97;98666.16;5092365;28;20035;-46
2023/05/13 09:35:40;;;;;;;10.80;5.25;;;;;;;19.22;55.94;98668.22;5091048;28;20036;-46
2023/05/13 09:38:24;;;;;;;9.10;5.25;;;;;;;19.43;55.59;98664.59;5091329;28;20046;-46
2023/05/13 09:40:59;;;;;;;9.15;4.80;;;;;;;19.72;54.80;98667.69;5091985;28;20044;-46
2023/05/13 09:43:30;;;;;;;7.78;4.60;;;;;;;20.13;53.83;98667.00;5092164;28;20084;-46
2023/05/13 09:46:00;;;;;;;11.07;4.97;;;;;;;20.69;52.37;98663.63;5092249;28;20028;-46
2023/05/13 09:48:28;;;;;;;10.27;4.78;;;;;;;21.42;50.86;98654.44;5092151;28;20440;-46
2023/05/13 09:50:56;;;;;;;7.20;5.13;;;;;;;21.89;49.28;98659.34;5090796;28;20047;-46
2023/05/13 09:53:23;;;;;;;12.27;4.90;;;;;;;22.16;48.04;98654.66;5090828;28;20113;-46
2023/05/13 09:55:51;;;;;;;9.68;4.22;;;;;;;22.42;47.19;98661.47;5092311;28;20028;-47
2023/05/13 09:58:19;;;;;;;10.38;4.40;;;;;;;22.91;46.50;98665.88;5091990;28;20031;-47
2023/05/13 10:00:46;;;;;;;11.00;4.30;;;;;;;23.31;44.91;98661.22;5090483;28;20032;-47
2023/05/13 10:03:13;;;;;;;5.38;4.63;;;;;;;23.23;43.83;98663.72;5091847;28;20039;-47
2023/05/13 10:05:39;;;;;;;5.75;4.50;;;;;;;22.74;45.32;98654.78;5090527;28;20032;-47
2023/05/13 10:08:08;;;;;;;10.77;4.72;;;;;;;22.88;45.50;98655.72;5090596;28;20123;-47
2023/05/13 10:10:35;;;;;;;7.32;4.68;;;;;;;22.97;45.76;98660.47;5090509;28;20028;-47
2023/05/13 10:13:12;;;;;;;13.88;6.57;;;;;;;22.90;45.50;98661.59;5090653;28;20460;-47
2023/05/13 10:15:56;;;;;;;8.55;5.07;;;;;;;22.91;45.46;98665.88;5091813;28;20031;-47
2023/05/13 10:18:23;;;;;;;11.63;5.30;;;;;;;22.36;46.41;98662.56;5090620;28;20115;-47
2023/05/13 10:20:51;;;;;;;12.95;5.57;;;;;;;22.02;47.22;98663.28;5091693;28;20397;-47
2023/05/13 10:23:22;;;;;;;10.32;5.30;;;;;;;21.76;47.41;98664.50;5091749;28;20074;-47
2023/05/13 10:25:49;;;;;;;8.68;5.20;;;;;;;22.07;46.78;98663.28;5091685;28;20047;-47
2023/05/13 10:28:16;;;;;;;8.50;4.60;;;;;;;22.00;46.08;98659.31;5091722;28;20055;-46
2023/05/13 10:30:42;;;;;;;9.07;5.38;;;;;;;21.94;46.94;98664.66;5091596;28;20050;-47
2023/05/13 10:33:09;;;;;;;8.07;5.35;;;;;;;22.51;46.48;98662.44;5090342;28;20409;-47
2023/05/13 10:35:39;;;;;;;11.40;5.43;;;;;;;23.20;44.96;98667.78;5091605;28;20055;-47
2023/05/13 10:38:14;;;;;;;7.70;5.28;;;;;;;23.72;43.45;98658.06;5090386;28;20063;-46
2023/05/13 10:41:30;;;;;;;7.93;5.20;;;;;;;24.22;42.75;98662.25;5091213;28;20090;-47
2023/05/13 10:43:59;;;;;;;4.88;4.35;;;;;;;24.48;41.83;98662.66;5065391;28;20125;-47
2023/05/13 10:46:26;;;;;;;8.35;5.20;;;;;;;24.38;41.56;98662.81;5091578;28;20386;-46
2023/05/13 10:48:58;;;;;;;11.48;4.90;;;;;;;24.29;41.52;98658.13;5090240;28;20032;-47
2023/05/13 10:51:24;;;;;;;8.82;4.88;;;;;;;24.24;41.54;98647.44;5073404;28;20431;-47
2023/05/13 10:53:53;;;;;;;7.90;4.93;;;;;;;24.15;41.64;98651.06;5092700;28;20028;-46
2023/05/13 10:56:20;;;;;;;5.10;4.60;;;;;;;24.06;41.45;98657.09;5094041;28;20020;-47
2023/05/13 10:59:01;;;;;;;12.27;4.97;;;;;;;23.63;42.37;98651.75;5094008;28;20021;-47
2023/05/13 11:01:34;;;;;;;9.85;4.25;;;;;;;23.67;42.94;98654.66;5077122;28;20032;-47
2023/05/13 11:04:02;;;;;;;17.00;5.10;;;;;;;23.66;41.81;98645.00;5093925;28;20036;-47
2023/05/13 11:06:36;;;;;;;8.73;4.20;;;;;;;23.67;41.79;98647.41;5094106;28;20197;-47
2023/05/13 11:09:06;;;;;;;7.57;5.30;;;;;;;23.19;42.42;98646.63;5093831;28;20028;-47
2023/05/13 11:11:34;;;;;;;7.65;4.88;;;;;;;23.22;43.22;98651.41;5093710;28;20027;-47
2023/05/13 11:14:15;;;;;;;6.18;4.65;;;;;;;23.39;42.70;98641.03;5094109;28;20099;-47
2023/05/13 11:16:51;;;;;;;9.23;5.28;;;;;;;23.52;42.67;98639.53;5095190;28;20024;-47
2023/05/13 11:19:24;;;;;;;6.70;4.53;;;;;;;24.18;42.22;98635.22;5095011;28;20024;-47
2023/05/13 11:21:52;;;;;;;8.98;5.53;;;;;;;25.10;40.74;98624.84;5094848;28;20035;-47
2023/05/13 11:24:19;;;;;;;5.93;4.18;;;;;;;25.97;39.59;98620.44;5093496;28;20020;-47
2023/05/13 11:26:46;;;;;;;14.77;5.00;;;;;;;27.02;36.95;98621.91;5094727;28;20028;-47